Time;durP1;ratioP1;P1;durP2;ratioP2;P2;SDS_P1;SDS_P2;PMS_P1;PMS_P2;Temp;Humidity;BMP_temperature;BMP_pressure;BME280_temperature;BME280_humidity;BME280_pressure;Samples;Min_cycle;Max_cycle;Signal;HPM_P1;HPM_P2
2021/05/02 00:01:19;;;;;;;14.23;11.97;;;;;;;9.23;56.72;100024.03;5103143;28;20830;-63
2021/05/02 00:03:45;;;;;;;14.50;11.97;;;;;;;9.23;56.74;100030.25;5104593;28;20435;-63
2021/05/02 00:06:12;;;;;;;16.53;12.10;;;;;;;9.31;56.63;100026.88;5102636;28;20493;-63
2021/05/02 00:08:39;;;;;;;14.00;12.03;;;;;;;9.28;56.59;100021.81;5102586;28;20462;-63
2021/05/02 00:11:06;;;;;;;16.90;12.43;;;;;;;9.22;56.97;100025.88;5102455;28;20467;-63
2021/05/02 00:13:33;;;;;;;13.17;11.70;;;;;;;9.28;56.64;100034.31;5103938;28;20427;-63
2021/05/02 00:15:59;;;;;;;16.03;12.83;;;;;;;9.25;56.64;100024.75;5102395;28;20510;-63
2021/05/02 00:18:26;;;;;;;14.20;12.37;;;;;;;9.11;57.16;100030.47;5103590;28;20455;-63
2021/05/02 00:20:53;;;;;;;15.67;13.27;;;;;;;9.08;57.29;100022.75;5102475;28;20502;-63
2021/05/02 00:23:21;;;;;;;14.20;12.67;;;;;;;8.97;57.91;100029.03;5104064;28;20488;-63
2021/05/02 00:25:48;;;;;;;14.73;13.07;;;;;;;8.80;58.51;100030.50;5102403;28;20463;-63
2021/05/02 00:28:14;;;;;;;14.67;12.40;;;;;;;8.82;58.68;100036.56;5102155;28;20778;-63
2021/05/02 00:30:41;;;;;;;14.83;12.93;;;;;;;8.80;58.96;100039.38;5102145;28;20474;-62
2021/05/02 00:33:08;;;;;;;19.20;13.40;;;;;;;8.79;58.98;100047.50;5103013;28;20466;-63
2021/05/02 00:35:34;;;;;;;17.20;14.03;;;;;;;8.82;58.93;100039.25;5102352;28;20490;-63
2021/05/02 00:38:00;;;;;;;17.40;15.60;;;;;;;8.71;59.33;100042.81;5103006;28;20510;-63
2021/05/02 00:40:34;;;;;;;15.10;13.17;;;;;;;8.86;58.90;100037.97;5102203;28;20506;-63
2021/05/02 00:43:04;;;;;;;15.97;13.50;;;;;;;8.86;58.91;100037.97;5103749;28;20443;-63
2021/05/02 00:45:36;;;;;;;13.87;12.47;;;;;;;8.75;59.57;100038.06;5102183;28;20474;-63
2021/05/02 00:48:04;;;;;;;15.87;13.27;;;;;;;8.66;60.04;100040.56;5102663;28;20443;-63
2021/05/02 00:50:33;;;;;;;18.60;13.97;;;;;;;8.59;60.55;100033.22;5102603;28;20536;-63
2021/05/02 00:53:16;;;;;;;18.13;14.17;;;;;;;8.78;59.79;100035.97;5103184;28;20786;-63
2021/05/02 00:55:47;;;;;;;15.40;13.20;;;;;;;8.78;59.61;100038.63;5101623;28;20496;-63
2021/05/02 00:58:25;;;;;;;14.73;12.97;;;;;;;8.80;59.79;100035.84;5102583;28;20542;-63
2021/05/02 01:00:54;;;;;;;16.40;13.27;;;;;;;8.85;59.94;100037.16;5101823;28;21023;-63
2021/05/02 01:03:24;;;;;;;18.83;13.90;;;;;;;8.80;59.97;100035.84;5103092;28;20457;-63
2021/05/02 01:05:52;;;;;;;15.13;11.87;;;;;;;8.82;60.06;100033.91;5101991;28;20474;-63
2021/05/02 01:08:18;;;;;;;16.70;14.27;;;;;;;8.86;59.45;100035.31;5102379;28;20462;-63
2021/05/02 01:10:46;;;;;;;15.10;12.97;;;;;;;8.74;59.67;100039.88;5101021;28;20478;-63
2021/05/02 01:13:15;;;;;;;14.87;12.37;;;;;;;8.76;59.73;100045.94;5102667;28;20445;-63
2021/05/02 01:15:46;;;;;;;20.73;13.43;;;;;;;8.77;59.84;100044.97;5101654;28;20483;-63
2021/05/02 01:18:12;;;;;;;16.37;13.40;;;;;;;8.75;60.13;100043.38;5101680;28;21015;-63
2021/05/02 01:20:41;;;;;;;17.20;13.67;;;;;;;8.70;60.43;100040.28;5101884;28;20498;-63
2021/05/02 01:23:13;;;;;;;15.27;12.87;;;;;;;8.74;60.46;100044.38;5102579;28;20431;-63
2021/05/02 01:25:39;;;;;;;17.40;13.73;;;;;;;8.70;60.61;100046.47;5101621;28;20497;-63
2021/05/02 01:28:05;;;;;;;17.87;13.60;;;;;;;8.70;60.55;100046.47;5101853;28;20447;-63
2021/05/02 01:30:32;;;;;;;15.47;12.67;;;;;;;8.71;60.63;100037.50;5101399;28;20485;-63
2021/05/02 01:32:58;;;;;;;20.90;14.90;;;;;;;8.82;60.33;100045.41;5102576;28;20459;-63
2021/05/02 01:35:24;;;;;;;18.10;14.47;;;;;;;8.82;60.41;100041.91;5101562;28;20474;-63
2021/05/02 01:37:51;;;;;;;17.57;13.80;;;;;;;8.76;60.44;100037.94;5101625;28;20477;-63
2021/05/02 01:40:19;;;;;;;16.80;14.07;;;;;;;8.74;60.45;100041.72;5100827;28;20467;-63
2021/05/02 01:42:45;;;;;;;18.40;14.53;;;;;;;8.64;60.77;100031.00;5102384;28;20458;-63
2021/05/02 01:45:12;;;;;;;16.60;14.60;;;;;;;8.66;60.84;100040.56;5101250;28;20447;-63
2021/05/02 01:47:43;;;;;;;18.53;14.97;;;;;;;8.60;61.07;100035.75;5101481;28;20443;-62
2021/05/02 01:50:10;;;;;;;16.97;13.50;;;;;;;8.52;61.41;100035.56;5101260;28;21056;-63
2021/05/02 01:52:43;;;;;;;19.70;15.07;;;;;;;8.60;61.18;100041.09;5102296;28;20455;-63
2021/05/02 01:55:11;;;;;;;20.40;14.60;;;;;;;8.55;61.36;100037.16;5101160;28;20436;-63
2021/05/02 01:57:38;;;;;;;19.50;14.80;;;;;;;8.48;61.52;100037.66;5101553;28;20451;-63
2021/05/02 02:00:08;;;;;;;19.40;15.30;;;;;;;8.32;62.36;100041.78;5101056;28;20486;-63
2021/05/02 02:02:35;;;;;;;21.53;17.10;;;;;;;8.38;62.51;100041.22;5102146;28;20454;-63
2021/05/02 02:05:03;;;;;;;19.57;15.47;;;;;;;8.29;62.52;100046.34;5101516;28;20443;-63
2021/05/02 02:07:30;;;;;;;19.97;16.67;;;;;;;8.32;62.81;100047.09;5101218;28;20490;-63
2021/05/02 02:09:57;;;;;;;19.50;15.63;;;;;;;8.27;63.18;100056.31;5100685;28;20442;-63
2021/05/02 02:12:23;;;;;;;18.63;15.17;;;;;;;8.39;62.45;100053.59;5101548;28;20475;-63
2021/05/02 02:14:52;;;;;;;20.00;16.10;;;;;;;8.27;62.72;100052.81;5101358;28;20885;-63
2021/05/02 02:17:19;;;;;;;20.97;16.10;;;;;;;8.18;63.64;100045.59;5100572;28;20522;-63
2021/05/02 02:19:46;;;;;;;21.50;15.60;;;;;;;8.30;63.03;100044.56;5101558;28;20904;-63
2021/05/02 02:22:14;;;;;;;21.10;15.30;;;;;;;8.39;62.75;100048.25;5101465;28;21030;-63
2021/05/02 02:24:44;;;;;;;21.57;15.50;;;;;;;8.45;62.78;100050.41;5101623;28;20531;-63
2021/05/02 02:27:11;;;;;;;26.70;18.27;;;;;;;8.39;62.84;100048.25;5100781;28;20534;-63
2021/05/02 02:29:40;;;;;;;19.83;17.03;;;;;;;8.56;62.48;100050.34;5099242;28;20475;-63
2021/05/02 02:32:09;;;;;;;21.17;16.63;;;;;;;8.65;62.15;100044.22;5100865;28;20481;-63
2021/05/02 02:34:40;;;;;;;21.33;16.50;;;;;;;8.74;61.89;100053.22;5099406;28;20491;-62
2021/05/02 02:37:06;;;;;;;21.70;17.07;;;;;;;8.81;61.74;100062.38;5096277;28;20485;-63
2021/05/02 02:39:32;;;;;;;20.47;14.93;;;;;;;8.89;61.64;100061.72;5098881;28;20451;-63
2021/05/02 02:41:59;;;;;;;23.30;18.30;;;;;;;8.97;61.51;100058.34;5080925;28;20483;-63
2021/05/02 02:44:27;;;;;;;24.10;16.90;;;;;;;9.05;60.96;100066.53;5081145;28;20428;-63
2021/05/02 02:46:57;;;;;;;19.27;16.53;;;;;;;9.00;61.24;100058.09;5098656;28;21068;-63
2021/05/02 02:49:28;;;;;;;20.80;16.57;;;;;;;9.12;60.94;100050.84;5101450;28;20451;-63
2021/05/02 02:51:55;;;;;;;20.13;16.77;;;;;;;9.11;60.96;100052.63;5102805;28;20500;-63
2021/05/02 02:54:22;;;;;;;21.67;16.90;;;;;;;9.13;60.81;100052.50;5104871;28;20482;-63
2021/05/02 02:56:51;;;;;;;24.10;17.87;;;;;;;8.99;61.17;100059.94;5092967;28;20490;-63
2021/05/02 02:59:19;;;;;;;21.43;17.07;;;;;;;9.10;61.11;100058.97;5084885;28;20435;-63
2021/05/02 03:01:47;;;;;;;24.23;18.30;;;;;;;8.80;61.97;100062.50;5084644;28;20543;-63
2021/05/02 03:04:17;;;;;;;20.73;17.10;;;;;;;9.02;61.32;100058.81;5085094;28;20451;-63
2021/05/02 03:06:44;;;;;;;21.83;17.90;;;;;;;9.08;61.22;100068.06;5085296;28;20943;-63
2021/05/02 03:09:12;;;;;;;19.83;16.83;;;;;;;9.02;61.01;100059.63;5083584;28;20470;-63
2021/05/02 03:11:39;;;;;;;21.53;17.50;;;;;;;9.08;60.80;100060.94;5096098;28;20479;-63
2021/05/02 03:14:05;;;;;;;19.73;16.20;;;;;;;9.18;60.66;100063.63;5105191;28;21010;-63
2021/05/02 03:16:33;;;;;;;22.43;17.37;;;;;;;9.11;60.54;100071.31;5092633;28;20495;-63
2021/05/02 03:19:03;;;;;;;22.53;17.00;;;;;;;9.17;60.55;100049.44;5084264;28;20451;-63
2021/05/02 03:21:33;;;;;;;19.57;15.90;;;;;;;8.96;61.20;100070.03;5093989;28;20483;-63
2021/05/02 03:24:03;;;;;;;22.00;17.47;;;;;;;8.82;61.93;100060.56;5104955;28;20864;-63
2021/05/02 03:26:30;;;;;;;22.40;18.43;;;;;;;8.94;61.49;100070.16;5103035;28;20502;-63
2021/05/02 03:28:59;;;;;;;23.50;18.73;;;;;;;8.92;61.57;100065.91;5104152;28;20510;-63
2021/05/02 03:31:30;;;;;;;23.97;20.07;;;;;;;8.71;62.38;100072.13;5095998;28;20542;-63
2021/05/02 03:34:01;;;;;;;27.80;18.97;;;;;;;8.60;63.00;100069.56;5084581;28;20447;-63
2021/05/02 03:36:31;;;;;;;27.50;20.70;;;;;;;8.75;62.78;100086.03;5091437;28;20999;-62
2021/05/02 03:38:58;;;;;;;23.57;19.90;;;;;;;8.79;62.58;100074.16;5103718;28;20605;-63
2021/05/02 03:41:25;;;;;;;27.30;20.73;;;;;;;8.67;63.38;100074.22;5096596;28;20581;-63
2021/05/02 03:43:51;;;;;;;27.00;20.80;;;;;;;8.50;63.90;100082.81;5084786;28;20444;-63
2021/05/02 03:46:24;;;;;;;27.00;20.50;;;;;;;8.55;64.14;100085.94;5084400;28;20508;-63
2021/05/02 03:48:54;;;;;;;30.90;23.10;;;;;;;8.47;64.36;100083.09;5083723;28;20470;-62
2021/05/02 03:51:21;;;;;;;29.70;22.60;;;;;;;8.40;64.75;100087.22;5088247;28;20479;-62
2021/05/02 03:53:47;;;;;;;30.70;23.63;;;;;;;8.28;65.60;100094.44;5104722;28;20427;-62
2021/05/02 03:56:33;;;;;;;29.17;22.60;;;;;;;8.25;65.50;100095.53;5099752;28;20508;-62
2021/05/02 03:59:06;;;;;;;30.80;22.97;;;;;;;8.30;65.40;100093.34;5083966;28;20482;-62
2021/05/02 04:01:32;;;;;;;32.70;24.20;;;;;;;8.38;65.22;100098.00;5082638;28;20496;-63
2021/05/02 04:03:59;;;;;;;32.53;24.13;;;;;;;8.40;65.27;100101.41;5084029;28;20428;-63
2021/05/02 04:06:26;;;;;;;32.03;24.50;;;;;;;8.60;64.92;100110.38;5087015;28;20590;-63
2021/05/02 04:08:52;;;;;;;32.07;24.07;;;;;;;8.19;66.04;100114.69;5103019;28;21274;-63
2021/05/02 04:11:18;;;;;;;35.50;25.20;;;;;;;8.51;64.82;100113.00;5101975;28;20541;-63
2021/05/02 04:13:45;;;;;;;36.30;27.00;;;;;;;8.30;65.73;100116.47;5104288;28;20454;-63
2021/05/02 04:16:13;;;;;;;33.40;24.23;;;;;;;8.60;64.79;100121.03;5101255;28;21057;-63
2021/05/02 04:18:40;;;;;;;37.43;25.30;;;;;;;8.08;66.29;100123.56;5063705;28;20452;-62
2021/05/02 04:21:06;;;;;;;34.23;24.27;;;;;;;7.97;66.82;100118.31;5062870;28;20477;-63
2021/05/02 04:23:33;;;;;;;32.40;24.67;;;;;;;8.00;66.96;100128.72;5088907;28;20484;-63
2021/05/02 04:25:59;;;;;;;36.07;25.10;;;;;;;8.15;66.32;100123.91;5103176;28;20500;-62
2021/05/02 04:28:26;;;;;;;33.27;24.87;;;;;;;8.39;65.63;100131.66;5084245;28;20517;-62
2021/05/02 04:30:53;;;;;;;35.30;24.87;;;;;;;8.08;66.57;100130.72;5096483;28;20487;-63
2021/05/02 04:33:19;;;;;;;33.50;24.20;;;;;;;8.02;66.73;100133.88;5103372;28;20447;-62
2021/05/02 04:35:45;;;;;;;32.37;23.70;;;;;;;8.00;66.54;100144.69;5103059;28;20485;-63
2021/05/02 04:38:12;;;;;;;32.70;23.23;;;;;;;8.39;65.40;100152.16;5103465;28;20455;-63
2021/05/02 04:40:38;;;;;;;29.40;23.17;;;;;;;8.11;65.84;100171.25;5101924;28;20463;-63
2021/05/02 04:43:04;;;;;;;31.77;22.70;;;;;;;8.16;65.73;100165.56;5103159;28;20443;-63
2021/05/02 04:45:30;;;;;;;33.53;22.87;;;;;;;7.97;66.19;100158.25;5102479;28;20490;-63
2021/05/02 04:47:57;;;;;;;27.30;20.13;;;;;;;8.24;65.07;100155.09;5102999;28;20462;-62
2021/05/02 04:50:23;;;;;;;29.40;20.40;;;;;;;8.51;64.51;100159.13;5100494;28;20439;-62
2021/05/02 04:52:49;;;;;;;30.70;22.23;;;;;;;8.48;64.39;100149.56;5103295;28;21007;-62
2021/05/02 04:55:16;;;;;;;27.43;19.43;;;;;;;8.25;65.33;100159.47;5102329;28;20961;-63
2021/05/02 04:57:42;;;;;;;24.20;19.37;;;;;;;7.95;66.11;100160.19;5102881;28;20478;-62
2021/05/02 05:00:09;;;;;;;23.70;18.17;;;;;;;8.07;66.10;100166.31;5101961;28;20490;-62
2021/05/02 05:02:35;;;;;;;25.50;18.70;;;;;;;8.30;65.31;100157.25;5102353;28;20893;-63
2021/05/02 05:05:02;;;;;;;20.97;17.50;;;;;;;8.20;65.44;100163.50;5102211;28;20473;-62
2021/05/02 05:07:29;;;;;;;23.67;17.40;;;;;;;8.74;64.06;100172.31;5101976;28;20490;-63
2021/05/02 05:09:55;;;;;;;24.90;17.73;;;;;;;9.20;62.44;100160.34;5101713;28;20443;-63
2021/05/02 05:12:21;;;;;;;24.27;16.90;;;;;;;8.97;63.07;100165.00;5101392;28;20482;-63
2021/05/02 05:14:47;;;;;;;21.70;15.83;;;;;;;9.31;62.07;100162.09;5102451;28;20428;-63
2021/05/02 05:17:13;;;;;;;22.17;15.57;;;;;;;9.03;62.60;100168.00;5102057;28;20474;-63
2021/05/02 05:19:39;;;;;;;24.27;15.33;;;;;;;9.66;61.22;100163.47;5102632;28;20458;-63
2021/05/02 05:22:06;;;;;;;22.70;16.33;;;;;;;10.53;57.66;100165.38;5101345;28;20503;-63
2021/05/02 05:24:32;;;;;;;17.60;13.87;;;;;;;10.97;56.66;100163.06;5102435;28;20473;-63
2021/05/02 05:26:59;;;;;;;21.03;14.80;;;;;;;9.84;60.30;100168.97;5101655;28;20467;-63
2021/05/02 05:29:25;;;;;;;18.00;13.57;;;;;;;9.52;61.39;100175.38;5101247;28;21023;-63
2021/05/02 05:31:51;;;;;;;17.07;14.53;;;;;;;9.20;62.67;100171.00;5101754;28;20463;-63
2021/05/02 05:34:17;;;;;;;21.37;15.10;;;;;;;8.92;63.63;100178.72;5102364;28;20455;-63
2021/05/02 05:36:43;;;;;;;18.50;14.67;;;;;;;8.89;63.44;100176.34;5101868;28;20470;-63
2021/05/02 05:39:10;;;;;;;19.50;14.60;;;;;;;8.82;64.03;100176.03;5101660;28;20479;-63
2021/05/02 05:41:36;;;;;;;19.07;15.47;;;;;;;9.26;63.05;100177.66;5101304;28;20483;-63
2021/05/02 05:44:03;;;;;;;19.00;14.90;;;;;;;8.97;63.63;100181.84;5102348;28;20803;-63
2021/05/02 05:46:29;;;;;;;19.13;14.73;;;;;;;9.07;63.84;100191.75;5100407;28;20463;-63
2021/05/02 05:48:55;;;;;;;22.20;15.70;;;;;;;9.03;63.98;100184.00;5102022;28;20455;-63
2021/05/02 05:51:22;;;;;;;21.13;16.70;;;;;;;9.47;62.43;100188.28;5101259;28;20521;-63
2021/05/02 05:53:48;;;;;;;21.27;16.57;;;;;;;9.66;61.98;100187.50;5102280;28;20804;-63
2021/05/02 05:56:15;;;;;;;20.17;15.23;;;;;;;9.30;62.85;100184.41;5101608;28;20467;-63
2021/05/02 05:58:41;;;;;;;22.03;15.97;;;;;;;9.55;62.32;100188.44;5101243;28;20483;-63
2021/05/02 06:01:07;;;;;;;20.40;16.57;;;;;;;9.51;62.69;100195.00;5101259;28;20526;-63
2021/05/02 06:03:33;;;;;;;20.10;14.73;;;;;;;9.64;62.52;100190.28;5101905;28;20440;-63
2021/05/02 06:06:00;;;;;;;19.07;15.30;;;;;;;9.79;62.06;100198.75;5101510;28;20470;-63
2021/05/02 06:08:26;;;;;;;16.23;13.67;;;;;;;9.11;63.56;100188.66;5101264;28;20971;-63
2021/05/02 06:10:52;;;;;;;15.20;12.30;;;;;;;9.29;63.18;100196.03;5100028;28;20475;-63
2021/05/02 06:13:19;;;;;;;18.93;13.70;;;;;;;9.55;62.57;100194.63;5100197;28;20450;-62
2021/05/02 06:15:46;;;;;;;17.03;12.77;;;;;;;9.93;61.70;100194.84;5101139;28;20479;-63
2021/05/02 06:18:12;;;;;;;19.20;13.60;;;;;;;9.87;61.50;100195.41;5101346;28;20469;-63
2021/05/02 06:20:38;;;;;;;16.77;12.83;;;;;;;10.33;60.40;100188.63;5100792;28;20487;-63
2021/05/02 06:23:04;;;;;;;16.40;12.93;;;;;;;10.23;60.27;100190.41;5102060;28;20427;-63
2021/05/02 06:25:30;;;;;;;15.47;12.00;;;;;;;9.86;61.91;100197.25;5102589;28;20504;-63
2021/05/02 06:27:59;;;;;;;13.50;11.70;;;;;;;9.52;62.45;100192.22;5106014;28;20451;-63
2021/05/02 06:30:26;;;;;;;16.10;11.10;;;;;;;9.36;63.14;100199.88;5104870;28;20454;-63
2021/05/02 06:32:52;;;;;;;16.10;11.53;;;;;;;9.97;61.52;100199.78;5105549;28;20475;-63
2021/05/02 06:35:19;;;;;;;16.87;10.90;;;;;;;9.87;61.01;100201.59;5103437;28;20462;-64
2021/05/02 06:37:45;;;;;;;14.70;10.23;;;;;;;9.92;61.08;100204.69;5084646;28;20475;-63
2021/05/02 06:40:12;;;;;;;14.67;10.80;;;;;;;9.84;61.20;100203.69;5083994;28;20483;-63
2021/05/02 06:42:39;;;;;;;16.10;11.20;;;;;;;10.34;59.94;100199.13;5082833;28;20467;-63
2021/05/02 06:45:06;;;;;;;14.47;10.10;;;;;;;10.54;59.14;100209.84;5082430;28;20444;-63
2021/05/02 06:47:33;;;;;;;15.90;10.23;;;;;;;10.48;58.76;100205.88;5082800;28;20475;-63
2021/05/02 06:49:59;;;;;;;11.93;8.47;;;;;;;11.01;57.19;100206.41;5082937;28;20482;-65
2021/05/02 06:52:25;;;;;;;13.20;9.40;;;;;;;10.57;58.51;100206.03;5080849;28;20480;-62
2021/05/02 06:54:53;;;;;;;10.57;8.70;;;;;;;10.84;57.14;100199.97;5080649;28;20475;-64
2021/05/02 06:57:20;;;;;;;11.73;9.17;;;;;;;11.90;54.96;100203.19;5076260;28;20492;-63
2021/05/02 06:59:46;;;;;;;11.27;8.70;;;;;;;11.14;55.90;100198.06;5080749;28;20451;-64
2021/05/02 07:02:12;;;;;;;11.57;8.10;;;;;;;10.49;57.86;100199.56;5080700;28;20733;-64
2021/05/02 07:04:39;;;;;;;8.93;7.67;;;;;;;10.60;57.69;100213.78;5080086;28;20447;-65
2021/05/02 07:07:06;;;;;;;12.67;9.07;;;;;;;10.16;59.31;100208.81;5080353;28;20486;-67
2021/05/02 07:09:32;;;;;;;14.40;9.17;;;;;;;10.29;58.78;100213.88;5079112;28;20474;-63
2021/05/02 07:11:58;;;;;;;14.37;8.90;;;;;;;10.11;59.69;100219.06;5078848;28;20533;-65
2021/05/02 07:14:25;;;;;;;14.20;9.20;;;;;;;10.16;59.98;100233.69;5083720;28;20444;-65
2021/05/02 07:16:51;;;;;;;12.47;8.97;;;;;;;10.44;59.21;100220.53;5082334;28;20476;-65
2021/05/02 07:19:19;;;;;;;12.70;9.07;;;;;;;10.05;60.34;100231.16;5077678;28;20459;-64
2021/05/02 07:21:47;;;;;;;10.47;8.67;;;;;;;9.47;61.90;100230.97;5075201;28;20503;-65
2021/05/02 07:24:15;;;;;;;10.70;9.43;;;;;;;9.50;62.13;100230.69;5083567;28;20454;-64
2021/05/02 07:26:41;;;;;;;10.27;8.80;;;;;;;9.66;62.51;100241.72;5081922;28;20471;-65
2021/05/02 07:29:07;;;;;;;12.03;10.10;;;;;;;9.96;61.14;100229.28;5083217;28;20463;-63
2021/05/02 07:31:33;;;;;;;13.53;9.70;;;;;;;9.73;62.26;100234.00;5081547;28;20496;-63
2021/05/02 07:33:59;;;;;;;13.40;9.67;;;;;;;10.24;61.22;100230.34;5080646;28;20455;-63
2021/05/02 07:36:26;;;;;;;10.30;8.73;;;;;;;10.07;61.48;100233.66;5081580;28;20479;-64
2021/05/02 07:38:53;;;;;;;10.90;9.03;;;;;;;10.22;61.33;100234.94;5082270;28;20462;-63
2021/05/02 07:41:19;;;;;;;8.70;7.80;;;;;;;10.78;59.07;100228.13;5079455;28;20543;-63
2021/05/02 07:43:45;;;;;;;8.73;7.83;;;;;;;9.98;60.36;100240.66;5063475;28;20444;-64
2021/05/02 07:46:11;;;;;;;9.97;7.23;;;;;;;10.36;59.88;100239.94;5074153;28;20479;-63
2021/05/02 07:48:37;;;;;;;8.70;6.90;;;;;;;10.35;60.06;100240.09;5082202;28;20466;-63
2021/05/02 07:51:04;;;;;;;8.47;6.63;;;;;;;10.66;58.75;100240.78;5085033;28;20590;-63
2021/05/02 07:53:30;;;;;;;7.00;6.30;;;;;;;10.59;59.27;100238.81;5081648;28;20455;-63
2021/05/02 07:55:57;;;;;;;7.90;6.00;;;;;;;10.36;59.77;100239.06;5081367;28;20475;-63
2021/05/02 07:58:24;;;;;;;7.47;6.50;;;;;;;10.79;59.31;100245.84;5078432;28;20456;-63
2021/05/02 08:00:50;;;;;;;7.83;6.27;;;;;;;10.21;60.75;100246.66;5082024;28;20510;-63
2021/05/02 08:03:16;;;;;;;9.20;6.97;;;;;;;10.48;60.04;100240.63;5085619;28;20470;-63
2021/05/02 08:05:42;;;;;;;9.47;7.43;;;;;;;10.39;60.10;100243.31;5089214;28;20483;-63
2021/05/02 08:08:09;;;;;;;10.17;7.43;;;;;;;10.52;60.12;100241.22;5078938;28;20451;-63
2021/05/02 08:10:35;;;;;;;9.93;7.90;;;;;;;10.98;58.64;100244.13;5091554;28;20467;-63
2021/05/02 08:13:02;;;;;;;8.40;7.27;;;;;;;10.98;58.10;100247.66;5092203;28;20490;-63
2021/05/02 08:15:28;;;;;;;9.90;7.87;;;;;;;11.03;58.23;100244.56;5094966;28;20614;-63
2021/05/02 08:17:56;;;;;;;14.17;7.57;;;;;;;11.14;58.04;100249.72;5101812;28;20458;-63
2021/05/02 08:20:23;;;;;;;12.10;7.30;;;;;;;10.95;58.53;100250.59;5083924;28;20510;-63
2021/05/02 08:22:49;;;;;;;9.90;7.30;;;;;;;10.84;58.54;100250.78;5088620;28;20944;-63
2021/05/02 08:25:15;;;;;;;11.70;7.73;;;;;;;11.10;57.87;100259.88;5071790;28;20445;-63
2021/05/02 08:27:43;;;;;;;13.37;7.10;;;;;;;11.38;56.93;100254.59;5069554;28;20461;-63
2021/05/02 08:30:11;;;;;;;7.70;6.87;;;;;;;11.14;57.53;100271.13;5075698;28;20488;-63
2021/05/02 08:32:37;;;;;;;7.53;6.83;;;;;;;11.06;57.75;100268.34;5094094;28;20440;-63
2021/05/02 08:35:04;;;;;;;12.23;8.03;;;;;;;11.42;56.32;100265.84;5089816;28;20455;-64
2021/05/02 08:37:31;;;;;;;7.93;6.57;;;;;;;11.65;55.96;100264.50;5082418;28;20475;-64
2021/05/02 08:39:59;;;;;;;11.73;7.33;;;;;;;11.60;55.16;100274.81;5081440;28;20456;-64
2021/05/02 08:42:25;;;;;;;8.20;6.90;;;;;;;11.61;55.78;100265.81;5080147;28;20468;-64
2021/05/02 08:44:53;;;;;;;10.37;6.90;;;;;;;11.30;55.65;100273.19;5092589;28;20478;-64
2021/05/02 08:47:20;;;;;;;8.63;6.67;;;;;;;10.99;55.78;100270.75;5081964;28;20483;-64
2021/05/02 08:49:46;;;;;;;7.77;6.00;;;;;;;11.35;55.40;100278.97;5082420;28;20482;-63
2021/05/02 08:52:20;;;;;;;11.30;6.33;;;;;;;11.43;55.27;100281.78;5087268;28;20476;-65
2021/05/02 08:54:47;;;;;;;9.13;7.00;;;;;;;11.66;54.89;100282.25;5077250;28;20452;-63
2021/05/02 08:57:14;;;;;;;13.70;6.03;;;;;;;11.69;55.95;100283.81;5080850;28;20502;-62
2021/05/02 08:59:43;;;;;;;9.13;5.63;;;;;;;10.89;57.25;100283.28;5074877;28;20648;-62
2021/05/02 09:02:22;;;;;;;9.30;6.03;;;;;;;10.81;57.66;100292.00;5063510;28;20494;-61
2021/05/02 09:04:53;;;;;;;14.53;7.30;;;;;;;11.09;57.27;100276.94;5080728;28;20472;-61
2021/05/02 09:07:19;;;;;;;8.00;6.13;;;;;;;11.19;56.17;100290.28;5080671;28;20480;-61
2021/05/02 09:09:45;;;;;;;11.17;6.20;;;;;;;11.74;53.95;100283.38;5075778;28;20996;-62
2021/05/02 09:12:22;;;;;;;6.90;5.20;;;;;;;11.97;53.47;100286.53;5082897;28;20482;-59
2021/05/02 09:14:51;;;;;;;7.50;5.60;;;;;;;11.68;53.37;100291.00;5081226;28;20446;-59
2021/05/02 09:17:25;;;;;;;6.40;5.20;;;;;;;12.08;52.97;100297.03;5079475;28;20535;-60
2021/05/02 09:19:53;;;;;;;7.93;5.70;;;;;;;12.24;52.76;100296.41;5080057;28;20475;-61
2021/05/02 09:22:20;;;;;;;7.37;5.23;;;;;;;12.11;52.69;100294.06;5075003;28;21324;-60
2021/05/02 09:24:59;;;;;;;9.60;5.43;;;;;;;12.41;51.56;100297.41;5080086;28;20456;-60
2021/05/02 09:27:25;;;;;;;5.50;3.90;;;;;;;12.58;50.95;100298.41;5078532;28;20487;-61
2021/05/02 09:29:51;;;;;;;7.83;4.73;;;;;;;12.21;51.01;100302.91;5085488;28;20628;-61
2021/05/02 09:32:22;;;;;;;6.53;4.03;;;;;;;11.74;51.49;100300.28;5080418;28;20537;-60
2021/05/02 09:34:49;;;;;;;7.53;5.00;;;;;;;12.02;51.27;100298.47;5099920;28;20584;-59
2021/05/02 09:37:16;;;;;;;4.70;3.80;;;;;;;12.12;51.46;100297.59;5098122;28;20481;-60
2021/05/02 09:39:47;;;;;;;6.50;3.83;;;;;;;12.51;50.56;100302.72;5098330;28;20451;-60
2021/05/02 09:42:16;;;;;;;5.70;4.57;;;;;;;12.23;49.76;100300.91;5097717;28;20569;-60
2021/05/02 09:44:45;;;;;;;7.03;4.60;;;;;;;13.11;48.39;100302.94;5099779;28;20455;-65
2021/05/02 09:47:22;;;;;;;6.33;4.20;;;;;;;12.87;47.83;100310.78;5083013;28;20487;-65
2021/05/02 09:50:19;;;;;;;10.20;4.37;;;;;;;13.28;47.04;100301.22;5078993;28;20458;-65
2021/05/02 09:52:49;;;;;;;4.30;3.90;;;;;;;13.50;46.91;100307.91;5099642;28;20459;-65
2021/05/02 09:55:27;;;;;;;4.17;3.50;;;;;;;13.05;46.83;100308.91;5096340;28;20520;-66
2021/05/02 09:57:58;;;;;;;5.03;3.80;;;;;;;13.00;47.37;100305.84;5086933;28;20447;-65
2021/05/02 10:00:31;;;;;;;5.27;4.03;;;;;;;12.60;48.33;100297.28;5098388;28;20640;-64
2021/05/02 10:02:59;;;;;;;4.60;3.93;;;;;;;13.68;46.53;100299.81;5094263;28;20447;-65
2021/05/02 10:05:26;;;;;;;6.23;3.67;;;;;;;14.14;44.55;100307.56;5092580;28;20471;-65
2021/05/02 10:07:54;;;;;;;4.50;3.40;;;;;;;15.35;41.75;100295.47;5091843;28;20455;-65
2021/05/02 10:10:22;;;;;;;3.63;3.23;;;;;;;15.79;40.28;100303.16;5088154;28;20505;-66
2021/05/02 10:12:50;;;;;;;4.17;3.60;;;;;;;15.57;40.42;100301.97;5097172;28;20462;-63
2021/05/02 10:15:16;;;;;;;4.50;2.90;;;;;;;15.06;40.57;100303.06;5098346;28;20450;-64
2021/05/02 10:17:42;;;;;;;6.67;3.67;;;;;;;14.02;42.35;100307.00;5099335;28;20864;-67
2021/05/02 10:20:12;;;;;;;10.40;3.53;;;;;;;13.48;44.15;100298.34;5099339;28;20454;-64
2021/05/02 10:22:39;;;;;;;5.07;3.37;;;;;;;13.20;45.23;100306.50;5086573;28;20444;-66
2021/05/02 10:25:07;;;;;;;3.90;2.87;;;;;;;12.94;45.64;100301.09;5078669;28;20458;-65
2021/05/02 10:27:41;;;;;;;4.00;3.53;;;;;;;13.79;44.31;100304.06;5095807;28;20451;-66
2021/05/02 10:30:09;;;;;;;5.83;3.30;;;;;;;14.68;41.56;100300.00;5086016;28;20488;-67
2021/05/02 10:32:35;;;;;;;5.83;3.10;;;;;;;16.25;38.60;100292.50;5077831;28;20452;-66
2021/05/02 10:35:44;;;;;;;4.47;3.50;;;;;;;18.04;35.62;100296.56;5079110;28;20448;-66
2021/05/02 10:38:10;;;;;;;6.80;3.07;;;;;;;18.20;35.38;100295.50;5085049;28;20469;-66
2021/05/02 10:40:39;;;;;;;2.97;2.47;;;;;;;18.50;32.69;100291.88;5098225;28;20475;-66
2021/05/02 10:43:09;;;;;;;5.50;3.13;;;;;;;18.66;31.44;100299.75;5100398;28;20960;-66
2021/05/02 10:45:47;;;;;;;4.77;2.70;;;;;;;15.05;38.55;100293.31;5099515;28;21369;-65
2021/05/02 10:48:36;;;;;;;2.57;2.30;;;;;;;13.45;43.04;100310.22;5099273;28;20891;-65
2021/05/02 10:51:03;;;;;;;6.93;2.93;;;;;;;12.26;46.91;100323.91;5099447;28;20469;-65
2021/05/02 10:53:29;;;;;;;3.27;2.30;;;;;;;11.78;48.73;100322.25;5100804;28;20435;-65
2021/05/02 10:55:59;;;;;;;5.00;2.30;;;;;;;12.33;48.03;100318.78;5098281;28;20466;-65
2021/05/02 10:58:27;;;;;;;6.67;2.47;;;;;;;12.48;48.99;100319.09;5100382;28;20454;-64
2021/05/02 11:00:57;;;;;;;4.50;2.70;;;;;;;12.84;47.10;100316.44;5080258;28;21007;-67
2021/05/02 11:03:52;;;;;;;2.87;2.40;;;;;;;12.95;45.29;100314.38;5099685;28;20427;-65
2021/05/02 11:06:59;;;;;;;4.07;2.47;;;;;;;14.77;42.19;100324.25;5099810;28;20466;-66
2021/05/02 11:09:30;;;;;;;3.23;2.93;;;;;;;15.11;41.00;100307.09;5096291;28;20922;-70
2021/05/02 11:11:58;;;;;;;3.60;2.00;;;;;;;14.20;41.69;100330.28;5101699;28;20557;-65
2021/05/02 11:14:42;;;;;;;4.00;2.63;;;;;;;13.30;43.36;100314.50;5103618;28;20439;-65
2021/05/02 11:17:30;;;;;;;2.73;1.70;;;;;;;13.00;42.85;100328.19;5102433;28;20481;-70
2021/05/02 11:20:00;;;;;;;3.83;2.20;;;;;;;13.76;42.12;100323.19;5083688;28;20460;-66
2021/05/02 11:22:28;;;;;;;1.97;1.37;;;;;;;13.45;41.93;100330.88;5091914;28;20535;-66
2021/05/02 11:24:59;;;;;;;3.10;1.80;;;;;;;13.04;42.46;100328.72;5102689;28;20439;-65